sensor_id;sensor_type;location;lat;lon;timestamp;P1;durP1;ratioP1;P2;durP2;ratioP2
13415;SDS011;6779;50.150;8.680;2022-07-06T00:01:18;3.23;;;1.47;;
13415;SDS011;6779;50.150;8.680;2022-07-06T00:03:44;1.97;;;1.53;;
13415;SDS011;6779;50.150;8.680;2022-07-06T00:06:10;1.40;;;1.30;;
13415;SDS011;6779;50.150;8.680;2022-07-06T00:08:36;2.00;;;1.77;;
13415;SDS011;6779;50.150;8.680;2022-07-06T00:11:02;1.60;;;1.50;;
13415;SDS011;6779;50.150;8.680;2022-07-06T00:13:28;1.30;;;1.20;;
13415;SDS011;6779;50.150;8.680;2022-07-06T00:15:53;2.60;;;2.40;;
13415;SDS011;6779;50.150;8.680;2022-07-06T00:18:19;2.33;;;1.83;;
13415;SDS011;6779;50.150;8.680;2022-07-06T00:20:45;2.87;;;2.20;;
13415;SDS011;6779;50.150;8.680;2022-07-06T00:23:10;1.93;;;1.60;;
13415;SDS011;6779;50.150;8.680;2022-07-06T00:25:36;1.33;;;1.23;;
13415;SDS011;6779;50.150;8.680;2022-07-06T00:28:02;1.87;;;1.50;;
13415;SDS011;6779;50.150;8.680;2022-07-06T00:30:28;1.80;;;1.70;;
13415;SDS011;6779;50.150;8.680;2022-07-06T00:32:54;1.60;;;1.50;;
13415;SDS011;6779;50.150;8.680;2022-07-06T00:35:19;1.60;;;1.50;;
13415;SDS011;6779;50.150;8.680;2022-07-06T00:37:45;1.97;;;1.57;;
13415;SDS011;6779;50.150;8.680;2022-07-06T00:40:10;3.17;;;2.50;;
13415;SDS011;6779;50.150;8.680;2022-07-06T00:42:40;3.93;;;2.63;;
13415;SDS011;6779;50.150;8.680;2022-07-06T00:45:06;2.03;;;1.80;;
13415;SDS011;6779;50.150;8.680;2022-07-06T00:47:32;1.90;;;1.70;;
13415;SDS011;6779;50.150;8.680;2022-07-06T00:49:58;2.53;;;1.60;;
13415;SDS011;6779;50.150;8.680;2022-07-06T00:52:38;1.93;;;1.60;;
13415;SDS011;6779;50.150;8.680;2022-07-06T00:55:05;1.70;;;1.60;;
13415;SDS011;6779;50.150;8.680;2022-07-06T00:57:31;1.73;;;1.63;;
13415;SDS011;6779;50.150;8.680;2022-07-06T00:59:57;1.70;;;1.60;;
13415;SDS011;6779;50.150;8.680;2022-07-06T01:02:23;2.93;;;1.63;;
13415;SDS011;6779;50.150;8.680;2022-07-06T01:04:49;1.70;;;1.60;;
13415;SDS011;6779;50.150;8.680;2022-07-06T01:07:15;2.43;;;2.00;;
13415;SDS011;6779;50.150;8.680;2022-07-06T01:09:41;2.17;;;1.97;;
13415;SDS011;6779;50.150;8.680;2022-07-06T01:12:07;1.57;;;1.47;;
13415;SDS011;6779;50.150;8.680;2022-07-06T01:14:33;3.37;;;1.60;;
13415;SDS011;6779;50.150;8.680;2022-07-06T01:17:00;2.37;;;2.17;;
13415;SDS011;6779;50.150;8.680;2022-07-06T01:19:26;2.40;;;2.10;;
13415;SDS011;6779;50.150;8.680;2022-07-06T01:21:52;2.40;;;2.20;;
13415;SDS011;6779;50.150;8.680;2022-07-06T01:24:17;2.00;;;1.83;;
13415;SDS011;6779;50.150;8.680;2022-07-06T01:26:43;1.70;;;1.60;;
13415;SDS011;6779;50.150;8.680;2022-07-06T01:29:09;2.37;;;1.90;;
13415;SDS011;6779;50.150;8.680;2022-07-06T01:31:35;1.70;;;1.60;;
13415;SDS011;6779;50.150;8.680;2022-07-06T01:34:10;1.80;;;1.60;;
13415;SDS011;6779;50.150;8.680;2022-07-06T01:36:36;2.53;;;1.87;;
13415;SDS011;6779;50.150;8.680;2022-07-06T01:39:02;2.00;;;1.60;;
13415;SDS011;6779;50.150;8.680;2022-07-06T01:41:27;1.80;;;1.70;;
13415;SDS011;6779;50.150;8.680;2022-07-06T01:43:53;2.07;;;1.57;;
13415;SDS011;6779;50.150;8.680;2022-07-06T01:46:19;3.17;;;2.30;;
13415;SDS011;6779;50.150;8.680;2022-07-06T01:48:45;1.70;;;1.60;;
13415;SDS011;6779;50.150;8.680;2022-07-06T01:51:11;2.07;;;1.73;;
13415;SDS011;6779;50.150;8.680;2022-07-06T01:53:37;4.70;;;3.17;;
13415;SDS011;6779;50.150;8.680;2022-07-06T01:56:03;2.00;;;1.80;;
13415;SDS011;6779;50.150;8.680;2022-07-06T01:58:29;3.20;;;1.90;;
13415;SDS011;6779;50.150;8.680;2022-07-06T02:00:54;2.03;;;1.80;;
13415;SDS011;6779;50.150;8.680;2022-07-06T02:03:20;2.40;;;2.20;;
13415;SDS011;6779;50.150;8.680;2022-07-06T02:05:46;3.10;;;2.10;;
13415;SDS011;6779;50.150;8.680;2022-07-06T02:08:12;1.77;;;1.67;;
13415;SDS011;6779;50.150;8.680;2022-07-06T02:10:37;2.13;;;2.03;;
13415;SDS011;6779;50.150;8.680;2022-07-06T02:13:03;2.03;;;1.77;;
13415;SDS011;6779;50.150;8.680;2022-07-06T02:15:28;1.90;;;1.60;;
13415;SDS011;6779;50.150;8.680;2022-07-06T02:17:54;1.63;;;1.53;;
13415;SDS011;6779;50.150;8.680;2022-07-06T02:20:20;2.60;;;2.20;;
13415;SDS011;6779;50.150;8.680;2022-07-06T02:22:45;1.93;;;1.83;;
13415;SDS011;6779;50.150;8.680;2022-07-06T02:25:11;1.87;;;1.77;;
13415;SDS011;6779;50.150;8.680;2022-07-06T02:27:36;3.27;;;2.97;;
13415;SDS011;6779;50.150;8.680;2022-07-06T02:30:02;8.17;;;3.77;;
13415;SDS011;6779;50.150;8.680;2022-07-06T02:32:28;3.23;;;2.27;;
13415;SDS011;6779;50.150;8.680;2022-07-06T02:34:54;2.10;;;1.93;;
13415;SDS011;6779;50.150;8.680;2022-07-06T02:37:20;2.10;;;2.00;;
13415;SDS011;6779;50.150;8.680;2022-07-06T02:39:45;1.60;;;1.50;;
13415;SDS011;6779;50.150;8.680;2022-07-06T02:42:11;1.90;;;1.80;;
13415;SDS011;6779;50.150;8.680;2022-07-06T02:44:36;1.73;;;1.63;;
13415;SDS011;6779;50.150;8.680;2022-07-06T02:47:02;3.70;;;1.80;;
13415;SDS011;6779;50.150;8.680;2022-07-06T02:49:28;2.00;;;1.60;;
13415;SDS011;6779;50.150;8.680;2022-07-06T02:51:53;2.10;;;1.90;;
13415;SDS011;6779;50.150;8.680;2022-07-06T02:54:19;1.87;;;1.70;;
13415;SDS011;6779;50.150;8.680;2022-07-06T02:56:45;2.50;;;1.73;;
13415;SDS011;6779;50.150;8.680;2022-07-06T02:59:15;2.37;;;2.17;;
13415;SDS011;6779;50.150;8.680;2022-07-06T03:01:41;2.13;;;1.60;;
13415;SDS011;6779;50.150;8.680;2022-07-06T03:04:07;2.40;;;1.70;;
13415;SDS011;6779;50.150;8.680;2022-07-06T03:06:32;2.23;;;1.50;;
13415;SDS011;6779;50.150;8.680;2022-07-06T03:08:58;1.40;;;1.30;;
13415;SDS011;6779;50.150;8.680;2022-07-06T03:11:23;2.53;;;1.50;;
13415;SDS011;6779;50.150;8.680;2022-07-06T03:13:49;1.33;;;1.23;;
13415;SDS011;6779;50.150;8.680;2022-07-06T03:16:15;1.50;;;1.40;;
13415;SDS011;6779;50.150;8.680;2022-07-06T03:18:40;1.50;;;1.40;;
13415;SDS011;6779;50.150;8.680;2022-07-06T03:21:06;1.60;;;1.50;;
13415;SDS011;6779;50.150;8.680;2022-07-06T03:23:31;1.47;;;1.37;;
13415;SDS011;6779;50.150;8.680;2022-07-06T03:25:57;2.80;;;1.47;;
13415;SDS011;6779;50.150;8.680;2022-07-06T03:28:22;2.80;;;2.50;;
13415;SDS011;6779;50.150;8.680;2022-07-06T03:30:48;1.70;;;1.60;;
13415;SDS011;6779;50.150;8.680;2022-07-06T03:33:13;1.80;;;1.63;;
13415;SDS011;6779;50.150;8.680;2022-07-06T03:35:39;1.40;;;1.27;;
13415;SDS011;6779;50.150;8.680;2022-07-06T03:38:05;1.60;;;1.50;;
13415;SDS011;6779;50.150;8.680;2022-07-06T03:40:30;3.67;;;1.23;;
13415;SDS011;6779;50.150;8.680;2022-07-06T03:42:56;2.03;;;1.40;;
13415;SDS011;6779;50.150;8.680;2022-07-06T03:45:21;1.60;;;1.50;;
13415;SDS011;6779;50.150;8.680;2022-07-06T03:47:47;1.17;;;1.07;;
13415;SDS011;6779;50.150;8.680;2022-07-06T03:50:13;1.73;;;1.37;;
13415;SDS011;6779;50.150;8.680;2022-07-06T03:52:38;1.87;;;1.77;;
13415;SDS011;6779;50.150;8.680;2022-07-06T03:55:06;1.33;;;1.23;;
13415;SDS011;6779;50.150;8.680;2022-07-06T03:57:33;1.83;;;1.60;;
13415;SDS011;6779;50.150;8.680;2022-07-06T03:59:59;1.10;;;1.10;;
13415;SDS011;6779;50.150;8.680;2022-07-06T04:02:24;2.13;;;1.50;;
13415;SDS011;6779;50.150;8.680;2022-07-06T04:04:50;2.00;;;1.57;;
13415;SDS011;6779;50.150;8.680;2022-07-06T04:07:16;1.93;;;1.40;;
13415;SDS011;6779;50.150;8.680;2022-07-06T04:09:41;1.93;;;1.30;;
13415;SDS011;6779;50.150;8.680;2022-07-06T04:12:07;3.40;;;1.50;;
13415;SDS011;6779;50.150;8.680;2022-07-06T04:14:32;1.60;;;1.40;;
13415;SDS011;6779;50.150;8.680;2022-07-06T04:16:59;2.30;;;1.63;;
13415;SDS011;6779;50.150;8.680;2022-07-06T04:19:45;1.43;;;1.33;;
13415;SDS011;6779;50.150;8.680;2022-07-06T04:22:11;2.20;;;1.47;;
13415;SDS011;6779;50.150;8.680;2022-07-06T04:24:36;2.23;;;1.43;;
13415;SDS011;6779;50.150;8.680;2022-07-06T04:27:02;3.17;;;1.43;;
13415;SDS011;6779;50.150;8.680;2022-07-06T04:29:28;1.23;;;1.13;;
13415;SDS011;6779;50.150;8.680;2022-07-06T04:31:53;2.10;;;1.27;;
13415;SDS011;6779;50.150;8.680;2022-07-06T04:34:19;2.67;;;1.50;;
13415;SDS011;6779;50.150;8.680;2022-07-06T04:36:44;1.43;;;1.30;;
13415;SDS011;6779;50.150;8.680;2022-07-06T04:39:10;2.03;;;1.63;;
13415;SDS011;6779;50.150;8.680;2022-07-06T04:41:35;1.60;;;1.50;;
13415;SDS011;6779;50.150;8.680;2022-07-06T04:44:01;1.40;;;1.30;;
13415;SDS011;6779;50.150;8.680;2022-07-06T04:46:27;1.30;;;1.20;;
13415;SDS011;6779;50.150;8.680;2022-07-06T04:48:52;3.87;;;1.60;;
13415;SDS011;6779;50.150;8.680;2022-07-06T04:51:18;2.30;;;1.30;;
13415;SDS011;6779;50.150;8.680;2022-07-06T04:53:43;1.87;;;1.63;;
13415;SDS011;6779;50.150;8.680;2022-07-06T04:56:10;1.90;;;1.70;;
13415;SDS011;6779;50.150;8.680;2022-07-06T04:58:36;2.00;;;1.43;;
13415;SDS011;6779;50.150;8.680;2022-07-06T05:01:01;2.13;;;1.80;;
13415;SDS011;6779;50.150;8.680;2022-07-06T05:03:27;5.53;;;1.73;;
13415;SDS011;6779;50.150;8.680;2022-07-06T05:05:52;1.67;;;1.57;;
13415;SDS011;6779;50.150;8.680;2022-07-06T05:08:18;3.40;;;1.70;;
13415;SDS011;6779;50.150;8.680;2022-07-06T05:10:44;1.90;;;1.80;;
13415;SDS011;6779;50.150;8.680;2022-07-06T05:13:10;3.53;;;1.90;;
13415;SDS011;6779;50.150;8.680;2022-07-06T05:15:35;3.10;;;1.80;;
13415;SDS011;6779;50.150;8.680;2022-07-06T05:18:01;2.27;;;2.03;;
13415;SDS011;6779;50.150;8.680;2022-07-06T05:20:27;1.60;;;1.50;;
13415;SDS011;6779;50.150;8.680;2022-07-06T05:22:52;2.83;;;1.80;;
13415;SDS011;6779;50.150;8.680;2022-07-06T05:25:18;2.97;;;1.80;;
13415;SDS011;6779;50.150;8.680;2022-07-06T05:27:44;2.37;;;1.50;;
13415;SDS011;6779;50.150;8.680;2022-07-06T05:30:09;2.00;;;1.77;;
13415;SDS011;6779;50.150;8.680;2022-07-06T05:32:35;2.03;;;1.80;;
13415;SDS011;6779;50.150;8.680;2022-07-06T05:35:01;2.60;;;1.80;;
13415;SDS011;6779;50.150;8.680;2022-07-06T05:37:26;2.63;;;1.93;;
13415;SDS011;6779;50.150;8.680;2022-07-06T05:39:52;2.77;;;1.50;;
13415;SDS011;6779;50.150;8.680;2022-07-06T05:42:17;2.40;;;1.80;;
13415;SDS011;6779;50.150;8.680;2022-07-06T05:44:43;4.13;;;2.07;;
13415;SDS011;6779;50.150;8.680;2022-07-06T05:47:08;1.60;;;1.50;;
13415;SDS011;6779;50.150;8.680;2022-07-06T05:49:52;5.23;;;1.80;;
13415;SDS011;6779;50.150;8.680;2022-07-06T05:52:36;1.60;;;1.50;;
13415;SDS011;6779;50.150;8.680;2022-07-06T05:55:02;2.07;;;1.87;;
13415;SDS011;6779;50.150;8.680;2022-07-06T05:57:28;2.00;;;1.60;;
13415;SDS011;6779;50.150;8.680;2022-07-06T05:59:54;2.40;;;1.77;;
13415;SDS011;6779;50.150;8.680;2022-07-06T06:02:19;2.53;;;1.63;;
13415;SDS011;6779;50.150;8.680;2022-07-06T06:04:45;2.23;;;1.73;;
13415;SDS011;6779;50.150;8.680;2022-07-06T06:07:10;3.23;;;1.77;;
13415;SDS011;6779;50.150;8.680;2022-07-06T06:09:36;3.67;;;2.57;;
13415;SDS011;6779;50.150;8.680;2022-07-06T06:12:02;2.23;;;2.03;;
13415;SDS011;6779;50.150;8.680;2022-07-06T06:14:27;2.30;;;2.10;;
13415;SDS011;6779;50.150;8.680;2022-07-06T06:16:53;3.03;;;2.10;;
13415;SDS011;6779;50.150;8.680;2022-07-06T06:19:18;2.17;;;1.97;;
13415;SDS011;6779;50.150;8.680;2022-07-06T06:21:44;2.33;;;2.13;;
13415;SDS011;6779;50.150;8.680;2022-07-06T06:24:09;2.43;;;1.90;;
13415;SDS011;6779;50.150;8.680;2022-07-06T06:26:35;3.70;;;2.30;;
13415;SDS011;6779;50.150;8.680;2022-07-06T06:29:01;1.97;;;1.70;;
13415;SDS011;6779;50.150;8.680;2022-07-06T06:31:26;2.30;;;2.10;;
13415;SDS011;6779;50.150;8.680;2022-07-06T06:33:52;2.20;;;2.00;;
13415;SDS011;6779;50.150;8.680;2022-07-06T06:36:18;2.80;;;2.40;;
13415;SDS011;6779;50.150;8.680;2022-07-06T06:38:43;2.43;;;2.23;;
13415;SDS011;6779;50.150;8.680;2022-07-06T06:41:09;2.40;;;1.83;;
13415;SDS011;6779;50.150;8.680;2022-07-06T06:43:35;2.30;;;2.10;;
13415;SDS011;6779;50.150;8.680;2022-07-06T06:46:00;3.90;;;2.23;;
13415;SDS011;6779;50.150;8.680;2022-07-06T06:48:26;2.07;;;1.93;;
13415;SDS011;6779;50.150;8.680;2022-07-06T06:50:51;3.33;;;2.20;;
13415;SDS011;6779;50.150;8.680;2022-07-06T06:53:17;2.70;;;1.87;;
13415;SDS011;6779;50.150;8.680;2022-07-06T06:55:43;3.03;;;2.10;;
13415;SDS011;6779;50.150;8.680;2022-07-06T06:58:08;2.37;;;2.00;;
13415;SDS011;6779;50.150;8.680;2022-07-06T07:00:34;2.20;;;2.00;;
13415;SDS011;6779;50.150;8.680;2022-07-06T07:02:59;3.07;;;2.07;;
13415;SDS011;6779;50.150;8.680;2022-07-06T07:05:25;2.07;;;1.97;;
13415;SDS011;6779;50.150;8.680;2022-07-06T07:07:51;2.80;;;2.20;;
13415;SDS011;6779;50.150;8.680;2022-07-06T07:10:17;2.27;;;2.07;;
13415;SDS011;6779;50.150;8.680;2022-07-06T07:12:46;2.20;;;2.00;;
13415;SDS011;6779;50.150;8.680;2022-07-06T07:15:12;2.20;;;1.70;;
13415;SDS011;6779;50.150;8.680;2022-07-06T07:17:39;3.20;;;1.93;;
13415;SDS011;6779;50.150;8.680;2022-07-06T07:20:05;2.37;;;1.83;;
13415;SDS011;6779;50.150;8.680;2022-07-06T07:22:32;2.23;;;1.90;;
13415;SDS011;6779;50.150;8.680;2022-07-06T07:24:57;2.40;;;2.03;;
13415;SDS011;6779;50.150;8.680;2022-07-06T07:27:26;1.77;;;1.53;;
13415;SDS011;6779;50.150;8.680;2022-07-06T07:29:51;2.43;;;2.00;;
13415;SDS011;6779;50.150;8.680;2022-07-06T07:32:18;2.27;;;2.07;;
13415;SDS011;6779;50.150;8.680;2022-07-06T07:34:44;5.13;;;1.93;;
13415;SDS011;6779;50.150;8.680;2022-07-06T07:37:10;1.90;;;1.80;;
13415;SDS011;6779;50.150;8.680;2022-07-06T07:39:36;2.33;;;2.10;;
13415;SDS011;6779;50.150;8.680;2022-07-06T07:42:01;2.50;;;1.97;;
13415;SDS011;6779;50.150;8.680;2022-07-06T07:44:28;3.07;;;1.80;;
13415;SDS011;6779;50.150;8.680;2022-07-06T07:46:53;2.10;;;1.30;;
13415;SDS011;6779;50.150;8.680;2022-07-06T07:49:19;1.83;;;1.50;;
13415;SDS011;6779;50.150;8.680;2022-07-06T07:51:46;2.13;;;1.90;;
13415;SDS011;6779;50.150;8.680;2022-07-06T07:54:12;1.87;;;1.77;;
13415;SDS011;6779;50.150;8.680;2022-07-06T07:56:39;2.80;;;1.80;;
13415;SDS011;6779;50.150;8.680;2022-07-06T07:59:06;1.67;;;1.57;;
13415;SDS011;6779;50.150;8.680;2022-07-06T08:01:32;2.33;;;2.00;;
13415;SDS011;6779;50.150;8.680;2022-07-06T08:03:58;1.80;;;1.70;;
13415;SDS011;6779;50.150;8.680;2022-07-06T08:06:23;2.20;;;1.60;;
13415;SDS011;6779;50.150;8.680;2022-07-06T08:08:49;2.13;;;1.90;;
13415;SDS011;6779;50.150;8.680;2022-07-06T08:11:15;2.40;;;2.20;;
13415;SDS011;6779;50.150;8.680;2022-07-06T08:13:40;2.17;;;1.67;;
13415;SDS011;6779;50.150;8.680;2022-07-06T08:16:06;3.80;;;2.37;;
13415;SDS011;6779;50.150;8.680;2022-07-06T08:18:33;1.90;;;1.80;;
13415;SDS011;6779;50.150;8.680;2022-07-06T08:20:59;2.20;;;2.00;;
13415;SDS011;6779;50.150;8.680;2022-07-06T08:23:24;2.37;;;2.03;;
13415;SDS011;6779;50.150;8.680;2022-07-06T08:25:50;2.50;;;1.73;;
13415;SDS011;6779;50.150;8.680;2022-07-06T08:28:15;2.40;;;2.10;;
13415;SDS011;6779;50.150;8.680;2022-07-06T08:30:41;2.50;;;1.93;;
13415;SDS011;6779;50.150;8.680;2022-07-06T08:33:07;6.23;;;2.17;;
13415;SDS011;6779;50.150;8.680;2022-07-06T08:35:32;2.73;;;2.10;;
13415;SDS011;6779;50.150;8.680;2022-07-06T08:37:58;3.07;;;1.90;;
13415;SDS011;6779;50.150;8.680;2022-07-06T08:40:23;3.40;;;2.20;;
13415;SDS011;6779;50.150;8.680;2022-07-06T08:42:53;2.27;;;2.03;;
13415;SDS011;6779;50.150;8.680;2022-07-06T08:45:19;2.00;;;1.80;;
13415;SDS011;6779;50.150;8.680;2022-07-06T08:47:45;2.73;;;2.53;;
13415;SDS011;6779;50.150;8.680;2022-07-06T08:50:14;2.70;;;1.80;;
13415;SDS011;6779;50.150;8.680;2022-07-06T08:52:41;2.53;;;2.33;;
13415;SDS011;6779;50.150;8.680;2022-07-06T08:55:08;4.43;;;2.30;;
13415;SDS011;6779;50.150;8.680;2022-07-06T08:57:34;3.50;;;2.00;;
13415;SDS011;6779;50.150;8.680;2022-07-06T09:00:00;2.33;;;2.10;;
13415;SDS011;6779;50.150;8.680;2022-07-06T09:02:25;3.60;;;2.73;;
13415;SDS011;6779;50.150;8.680;2022-07-06T09:04:55;2.20;;;1.97;;
13415;SDS011;6779;50.150;8.680;2022-07-06T09:07:22;2.67;;;2.27;;
13415;SDS011;6779;50.150;8.680;2022-07-06T09:09:49;4.17;;;2.53;;
13415;SDS011;6779;50.150;8.680;2022-07-06T09:12:16;2.73;;;2.10;;
13415;SDS011;6779;50.150;8.680;2022-07-06T09:14:42;3.23;;;2.37;;
13415;SDS011;6779;50.150;8.680;2022-07-06T09:17:07;2.30;;;1.83;;
13415;SDS011;6779;50.150;8.680;2022-07-06T09:19:33;3.27;;;2.23;;
13415;SDS011;6779;50.150;8.680;2022-07-06T09:22:03;2.13;;;1.80;;
13415;SDS011;6779;50.150;8.680;2022-07-06T09:24:29;3.17;;;2.70;;
13415;SDS011;6779;50.150;8.680;2022-07-06T09:26:57;2.57;;;2.37;;
13415;SDS011;6779;50.150;8.680;2022-07-06T09:29:27;2.20;;;2.00;;
13415;SDS011;6779;50.150;8.680;2022-07-06T09:31:57;2.43;;;2.10;;
13415;SDS011;6779;50.150;8.680;2022-07-06T09:34:39;2.20;;;1.92;;
13415;SDS011;6779;50.150;8.680;2022-07-06T09:37:07;3.92;;;2.20;;
13415;SDS011;6779;50.150;8.680;2022-07-06T09:39:33;2.42;;;1.70;;
13415;SDS011;6779;50.150;8.680;2022-07-06T09:42:00;2.10;;;1.90;;
13415;SDS011;6779;50.150;8.680;2022-07-06T09:44:29;4.10;;;1.70;;
13415;SDS011;6779;50.150;8.680;2022-07-06T09:46:57;2.03;;;1.77;;
13415;SDS011;6779;50.150;8.680;2022-07-06T09:49:28;1.98;;;1.80;;
13415;SDS011;6779;50.150;8.680;2022-07-06T09:51:55;1.70;;;1.60;;
13415;SDS011;6779;50.150;8.680;2022-07-06T09:54:22;2.08;;;1.88;;
13415;SDS011;6779;50.150;8.680;2022-07-06T09:56:49;1.75;;;1.60;;
13415;SDS011;6779;50.150;8.680;2022-07-06T09:59:21;2.78;;;1.50;;
13415;SDS011;6779;50.150;8.680;2022-07-06T10:01:55;2.60;;;1.90;;
13415;SDS011;6779;50.150;8.680;2022-07-06T10:04:31;2.15;;;1.95;;
13415;SDS011;6779;50.150;8.680;2022-07-06T10:06:57;2.40;;;2.00;;
13415;SDS011;6779;50.150;8.680;2022-07-06T10:09:24;1.50;;;1.40;;
13415;SDS011;6779;50.150;8.680;2022-07-06T10:11:58;1.92;;;1.55;;
13415;SDS011;6779;50.150;8.680;2022-07-06T10:14:26;1.83;;;1.60;;
13415;SDS011;6779;50.150;8.680;2022-07-06T10:16:57;1.70;;;1.40;;
13415;SDS011;6779;50.150;8.680;2022-07-06T10:19:24;1.65;;;1.42;;
13415;SDS011;6779;50.150;8.680;2022-07-06T10:21:50;4.18;;;3.78;;
13415;SDS011;6779;50.150;8.680;2022-07-06T10:24:19;2.70;;;1.88;;
13415;SDS011;6779;50.150;8.680;2022-07-06T10:26:46;1.83;;;1.40;;
13415;SDS011;6779;50.150;8.680;2022-07-06T10:29:12;2.13;;;1.45;;
13415;SDS011;6779;50.150;8.680;2022-07-06T10:31:46;2.15;;;1.50;;
13415;SDS011;6779;50.150;8.680;2022-07-06T10:34:13;2.00;;;1.90;;
13415;SDS011;6779;50.150;8.680;2022-07-06T10:36:43;1.55;;;1.45;;
13415;SDS011;6779;50.150;8.680;2022-07-06T10:39:10;1.52;;;1.42;;
13415;SDS011;6779;50.150;8.680;2022-07-06T10:41:54;2.40;;;1.60;;
13415;SDS011;6779;50.150;8.680;2022-07-06T10:44:21;1.60;;;1.50;;
13415;SDS011;6779;50.150;8.680;2022-07-06T10:49:18;1.67;;;1.40;;
13415;SDS011;6779;50.150;8.680;2022-07-06T10:51:45;2.15;;;1.70;;
13415;SDS011;6779;50.150;8.680;2022-07-06T10:54:12;1.63;;;1.52;;
13415;SDS011;6779;50.150;8.680;2022-07-06T10:56:39;2.28;;;1.90;;
13415;SDS011;6779;50.150;8.680;2022-07-06T10:59:10;1.83;;;1.70;;
13415;SDS011;6779;50.150;8.680;2022-07-06T11:01:37;2.72;;;1.60;;
13415;SDS011;6779;50.150;8.680;2022-07-06T11:04:04;2.38;;;1.58;;
13415;SDS011;6779;50.150;8.680;2022-07-06T11:06:32;1.60;;;1.50;;
13415;SDS011;6779;50.150;8.680;2022-07-06T11:09:03;2.08;;;1.42;;
13415;SDS011;6779;50.150;8.680;2022-07-06T11:16:31;1.85;;;1.20;;
13415;SDS011;6779;50.150;8.680;2022-07-06T11:19:06;1.40;;;1.20;;
13415;SDS011;6779;50.150;8.680;2022-07-06T11:21:37;1.52;;;1.42;;
13415;SDS011;6779;50.150;8.680;2022-07-06T11:24:04;1.52;;;1.42;;
13415;SDS011;6779;50.150;8.680;2022-07-06T11:26:31;2.05;;;1.20;;
13415;SDS011;6779;50.150;8.680;2022-07-06T11:29:01;1.55;;;1.20;;
13415;SDS011;6779;50.150;8.680;2022-07-06T11:31:34;1.40;;;1.30;;
13415;SDS011;6779;50.150;8.680;2022-07-06T11:34:03;3.45;;;1.50;;
13415;SDS011;6779;50.150;8.680;2022-07-06T11:36:30;2.97;;;1.50;;
13415;SDS011;6779;50.150;8.680;2022-07-06T11:38:56;2.40;;;1.65;;
13415;SDS011;6779;50.150;8.680;2022-07-06T11:41:21;2.97;;;1.38;;
13415;SDS011;6779;50.150;8.680;2022-07-06T11:43:47;1.25;;;1.15;;
13415;SDS011;6779;50.150;8.680;2022-07-06T11:46:19;1.58;;;1.48;;
13415;SDS011;6779;50.150;8.680;2022-07-06T11:48:47;1.15;;;1.05;;
13415;SDS011;6779;50.150;8.680;2022-07-06T11:51:13;1.30;;;1.20;;
13415;SDS011;6779;50.150;8.680;2022-07-06T11:53:42;1.52;;;1.40;;
13415;SDS011;6779;50.150;8.680;2022-07-06T11:56:12;1.40;;;1.05;;
13415;SDS011;6779;50.150;8.680;2022-07-06T11:58:40;1.08;;;1.08;;
13415;SDS011;6779;50.150;8.680;2022-07-06T12:01:08;3.13;;;1.33;;
13415;SDS011;6779;50.150;8.680;2022-07-06T12:03:35;2.45;;;1.42;;
13415;SDS011;6779;50.150;8.680;2022-07-06T12:06:02;3.72;;;1.17;;
13415;SDS011;6779;50.150;8.680;2022-07-06T12:08:28;1.85;;;1.17;;
13415;SDS011;6779;50.150;8.680;2022-07-06T12:10:54;1.35;;;1.20;;
13415;SDS011;6779;50.150;8.680;2022-07-06T12:13:20;1.15;;;1.05;;
13415;SDS011;6779;50.150;8.680;2022-07-06T12:15:46;1.17;;;1.08;;
13415;SDS011;6779;50.150;8.680;2022-07-06T12:18:11;0.80;;;0.80;;
13415;SDS011;6779;50.150;8.680;2022-07-06T12:20:37;1.20;;;1.20;;
13415;SDS011;6779;50.150;8.680;2022-07-06T12:23:03;1.27;;;1.17;;
13415;SDS011;6779;50.150;8.680;2022-07-06T12:25:33;1.35;;;0.95;;
13415;SDS011;6779;50.150;8.680;2022-07-06T12:28:00;0.90;;;0.90;;
13415;SDS011;6779;50.150;8.680;2022-07-06T12:30:26;1.10;;;1.00;;
13415;SDS011;6779;50.150;8.680;2022-07-06T12:33:12;1.92;;;1.00;;
13415;SDS011;6779;50.150;8.680;2022-07-06T12:35:39;3.95;;;1.33;;
13415;SDS011;6779;50.150;8.680;2022-07-06T12:38:05;1.05;;;1.05;;
13415;SDS011;6779;50.150;8.680;2022-07-06T12:40:31;1.10;;;1.00;;
13415;SDS011;6779;50.150;8.680;2022-07-06T12:42:56;1.17;;;1.10;;
13415;SDS011;6779;50.150;8.680;2022-07-06T12:45:26;0.95;;;0.90;;
13415;SDS011;6779;50.150;8.680;2022-07-06T12:47:59;1.52;;;1.10;;
13415;SDS011;6779;50.150;8.680;2022-07-06T12:50:32;1.92;;;1.17;;
13415;SDS011;6779;50.150;8.680;2022-07-06T12:52:59;0.90;;;0.90;;
13415;SDS011;6779;50.150;8.680;2022-07-06T12:55:27;1.85;;;1.30;;
13415;SDS011;6779;50.150;8.680;2022-07-06T12:57:53;0.93;;;0.90;;
13415;SDS011;6779;50.150;8.680;2022-07-06T13:00:20;0.90;;;0.90;;
13415;SDS011;6779;50.150;8.680;2022-07-06T13:02:48;1.13;;;0.90;;
13415;SDS011;6779;50.150;8.680;2022-07-06T13:05:23;1.00;;;0.93;;
13415;SDS011;6779;50.150;8.680;2022-07-06T13:07:53;1.10;;;1.10;;
13415;SDS011;6779;50.150;8.680;2022-07-06T13:10:20;1.93;;;1.23;;
13415;SDS011;6779;50.150;8.680;2022-07-06T13:12:47;2.30;;;1.15;;
13415;SDS011;6779;50.150;8.680;2022-07-06T13:15:13;1.10;;;1.00;;
13415;SDS011;6779;50.150;8.680;2022-07-06T13:17:39;0.98;;;0.88;;
13415;SDS011;6779;50.150;8.680;2022-07-06T13:20:06;1.10;;;0.98;;
13415;SDS011;6779;50.150;8.680;2022-07-06T13:22:35;1.50;;;1.10;;
13415;SDS011;6779;50.150;8.680;2022-07-06T13:25:01;1.45;;;1.00;;
13415;SDS011;6779;50.150;8.680;2022-07-06T13:27:27;1.02;;;0.80;;
13415;SDS011;6779;50.150;8.680;2022-07-06T13:29:52;1.23;;;1.02;;
13415;SDS011;6779;50.150;8.680;2022-07-06T13:32:19;1.20;;;1.05;;
13415;SDS011;6779;50.150;8.680;2022-07-06T13:34:45;1.02;;;0.95;;
13415;SDS011;6779;50.150;8.680;2022-07-06T13:37:10;1.17;;;1.07;;
13415;SDS011;6779;50.150;8.680;2022-07-06T13:39:36;1.42;;;1.10;;
13415;SDS011;6779;50.150;8.680;2022-07-06T13:42:01;2.13;;;0.95;;
13415;SDS011;6779;50.150;8.680;2022-07-06T13:44:27;1.30;;;1.00;;
13415;SDS011;6779;50.150;8.680;2022-07-06T13:46:53;0.90;;;0.90;;
13415;SDS011;6779;50.150;8.680;2022-07-06T13:49:19;0.88;;;0.77;;
13415;SDS011;6779;50.150;8.680;2022-07-06T13:51:45;0.90;;;0.90;;
13415;SDS011;6779;50.150;8.680;2022-07-06T13:54:11;1.17;;;1.10;;
13415;SDS011;6779;50.150;8.680;2022-07-06T13:56:37;1.27;;;1.10;;
13415;SDS011;6779;50.150;8.680;2022-07-06T13:59:04;1.10;;;1.00;;
13415;SDS011;6779;50.150;8.680;2022-07-06T14:01:30;1.30;;;1.20;;
13415;SDS011;6779;50.150;8.680;2022-07-06T14:03:55;1.30;;;1.20;;
13415;SDS011;6779;50.150;8.680;2022-07-06T14:06:21;1.20;;;1.10;;
13415;SDS011;6779;50.150;8.680;2022-07-06T14:08:47;2.58;;;1.20;;
13415;SDS011;6779;50.150;8.680;2022-07-06T14:11:13;1.73;;;1.60;;
13415;SDS011;6779;50.150;8.680;2022-07-06T14:13:39;1.23;;;1.17;;
13415;SDS011;6779;50.150;8.680;2022-07-06T14:16:05;1.23;;;1.02;;
13415;SDS011;6779;50.150;8.680;2022-07-06T14:18:32;1.48;;;1.35;;
13415;SDS011;6779;50.150;8.680;2022-07-06T14:20:58;1.48;;;1.38;;
13415;SDS011;6779;50.150;8.680;2022-07-06T14:23:25;1.35;;;1.23;;
13415;SDS011;6779;50.150;8.680;2022-07-06T14:25:51;1.30;;;1.20;;
13415;SDS011;6779;50.150;8.680;2022-07-06T14:28:17;1.27;;;1.17;;
13415;SDS011;6779;50.150;8.680;2022-07-06T14:30:43;2.00;;;1.40;;
13415;SDS011;6779;50.150;8.680;2022-07-06T14:33:10;1.65;;;1.27;;
13415;SDS011;6779;50.150;8.680;2022-07-06T14:35:41;2.43;;;1.30;;
13415;SDS011;6779;50.150;8.680;2022-07-06T14:38:08;1.63;;;1.40;;
13415;SDS011;6779;50.150;8.680;2022-07-06T14:40:34;2.17;;;1.40;;
13415;SDS011;6779;50.150;8.680;2022-07-06T14:43:01;1.30;;;1.20;;
13415;SDS011;6779;50.150;8.680;2022-07-06T14:45:27;1.97;;;1.87;;
13415;SDS011;6779;50.150;8.680;2022-07-06T14:47:53;1.47;;;1.37;;
13415;SDS011;6779;50.150;8.680;2022-07-06T14:50:19;1.30;;;1.20;;
13415;SDS011;6779;50.150;8.680;2022-07-06T14:52:48;1.77;;;1.43;;
13415;SDS011;6779;50.150;8.680;2022-07-06T14:55:13;1.57;;;1.30;;
13415;SDS011;6779;50.150;8.680;2022-07-06T14:57:39;1.77;;;1.60;;
13415;SDS011;6779;50.150;8.680;2022-07-06T15:00:05;1.93;;;1.33;;
13415;SDS011;6779;50.150;8.680;2022-07-06T15:02:31;1.70;;;1.60;;
13415;SDS011;6779;50.150;8.680;2022-07-06T15:04:56;1.27;;;1.17;;